createdAt,value
2019-02-27T00:00:29.733Z,21.65
2019-02-27T00:03:01.839Z,21.17
2019-02-27T00:05:34.148Z,20.92
2019-02-27T00:08:03.234Z,22.05
2019-02-27T00:10:39.297Z,21.15
2019-02-27T00:13:16.877Z,22.17
2019-02-27T00:15:45.846Z,20.72
2019-02-27T00:18:15.485Z,22.00
2019-02-27T00:20:46.838Z,21.50
2019-02-27T00:23:16.189Z,20.97
2019-02-27T00:25:47.033Z,21.02
2019-02-27T00:28:17.601Z,22.13
2019-02-27T00:30:52.253Z,21.68
2019-02-27T00:33:26.207Z,21.80
2019-02-27T00:35:55.131Z,21.48
2019-02-27T00:38:25.167Z,21.60
2019-02-27T00:40:54.851Z,20.35
2019-02-27T00:43:25.988Z,21.35
2019-02-27T00:45:59.265Z,21.30
2019-02-27T00:48:26.164Z,21.42
2019-02-27T00:51:04.367Z,20.45
2019-02-27T00:53:39.711Z,21.15
2019-02-27T00:56:12.255Z,21.07
2019-02-27T00:58:43.247Z,21.80
2019-02-27T01:01:12.675Z,22.10
2019-02-27T01:03:45.129Z,22.02
2019-02-27T01:06:14.797Z,21.10
2019-02-27T01:08:44.436Z,21.87
2019-02-27T01:11:18.212Z,21.62
2019-02-27T01:13:44.404Z,21.40
2019-02-27T01:16:17.216Z,20.85
2019-02-27T01:18:45.927Z,20.92
2019-02-27T01:21:19.845Z,20.32
2019-02-27T01:23:52.283Z,20.88
2019-02-27T01:26:23.392Z,21.15
2019-02-27T01:28:52.373Z,21.70
2019-02-27T01:31:21.927Z,21.05
2019-02-27T01:33:52.106Z,21.93
2019-02-27T01:36:24.233Z,20.57
2019-02-27T01:45:07.062Z,21.68
2019-02-27T01:47:40.720Z,21.00
2019-02-27T01:50:23.288Z,21.65
2019-02-27T01:52:58.221Z,19.95
2019-02-27T01:55:29.898Z,20.88
2019-02-27T01:58:03.829Z,20.12
2019-02-27T02:00:33.284Z,22.37
2019-02-27T02:03:06.740Z,22.20
2019-02-27T02:05:35.355Z,21.37
2019-02-27T02:08:18.114Z,21.77
2019-02-27T02:10:45.908Z,21.10
2019-02-27T02:13:20.364Z,20.55
2019-02-27T02:15:58.137Z,21.07
2019-02-27T02:18:35.430Z,22.15
2019-02-27T02:21:18.091Z,22.25
2019-02-27T02:24:03.778Z,21.45
2019-02-27T02:26:35.009Z,21.65
2019-02-27T02:29:21.011Z,21.93
2019-02-27T02:31:52.595Z,19.50
2019-02-27T02:34:32.581Z,20.82
2019-02-27T02:37:06.127Z,21.52
2019-02-27T02:39:54.766Z,22.17
2019-02-27T02:42:24.574Z,21.57
2019-02-27T02:44:58.667Z,22.20
2019-02-27T02:47:32.010Z,21.02
2019-02-27T02:50:04.841Z,21.33
2019-02-27T02:52:40.937Z,22.00
2019-02-27T02:55:12.577Z,21.82
2019-02-27T02:57:59.221Z,21.45
2019-02-27T03:00:39.096Z,22.35
2019-02-27T03:03:13.449Z,22.17
2019-02-27T03:05:58.557Z,21.70
2019-02-27T03:08:25.132Z,22.20
2019-02-27T03:11:18.103Z,22.17
2019-02-27T03:13:55.805Z,22.20
2019-02-27T03:16:33.308Z,21.77
2019-02-27T03:19:25.230Z,22.22
2019-02-27T03:22:03.628Z,21.33
2019-02-27T03:24:34.941Z,20.68
2019-02-27T03:27:21.857Z,22.22
2019-02-27T03:29:55.518Z,22.07
2019-02-27T03:32:44.249Z,22.17
2019-02-27T03:35:17.663Z,23.57
2019-02-27T03:37:58.265Z,22.00
2019-02-27T03:40:34.689Z,22.65
2019-02-27T03:43:10.414Z,21.65
2019-02-27T03:45:42.527Z,21.87
2019-02-27T03:48:14.523Z,21.30
2019-02-27T03:50:49.938Z,21.85
2019-02-27T03:53:24.278Z,21.17
2019-02-27T03:56:08.606Z,21.65
2019-02-27T03:58:57.772Z,21.90
2019-02-27T04:01:31.433Z,21.50
2019-02-27T04:04:06.580Z,21.62
2019-02-27T04:06:56.355Z,22.00
2019-02-27T04:09:24.479Z,21.35
2019-02-27T04:11:54.887Z,21.50
2019-02-27T04:14:27.902Z,22.77
2019-02-27T04:16:57.138Z,21.73
2019-02-27T04:19:28.197Z,20.77
2019-02-27T04:22:01.060Z,21.10
2019-02-27T04:24:33.120Z,21.90
2019-02-27T04:27:05.336Z,21.80
2019-02-27T04:29:41.127Z,21.60
2019-02-27T04:32:12.490Z,22.15
2019-02-27T04:34:43.083Z,20.90
2019-02-27T04:37:12.175Z,22.90
2019-02-27T04:39:41.160Z,22.98
2019-02-27T04:42:13.305Z,22.25
2019-02-27T04:44:42.286Z,21.73
2019-02-27T04:47:15.411Z,21.80
2019-02-27T04:49:44.561Z,21.68
2019-02-27T04:52:17.419Z,22.37
2019-02-27T04:54:46.457Z,20.97
2019-02-27T04:57:17.654Z,20.37
2019-02-27T04:59:52.315Z,21.57
2019-02-27T05:02:22.783Z,21.45
2019-02-27T05:04:52.032Z,21.65
2019-02-27T05:07:20.999Z,21.53
2019-02-27T05:09:53.438Z,21.05
2019-02-27T05:12:24.019Z,21.23
2019-02-27T05:14:52.994Z,21.87
2019-02-27T05:17:22.062Z,21.90
2019-02-27T05:19:52.062Z,23.03
2019-02-27T05:22:27.584Z,22.10
2019-02-27T05:24:58.110Z,21.30
2019-02-27T05:27:30.998Z,22.30
2019-02-27T05:30:03.240Z,21.68
2019-02-27T05:32:35.072Z,21.35
2019-02-27T05:35:04.302Z,21.37
2019-02-27T05:37:44.123Z,21.70
2019-02-27T05:40:17.000Z,21.02
2019-02-27T05:42:45.944Z,21.57
2019-02-27T05:45:16.488Z,20.90
2019-02-27T05:47:47.286Z,20.65
2019-02-27T05:50:19.574Z,21.35
2019-02-27T05:52:52.949Z,21.80
2019-02-27T05:55:26.080Z,22.10
2019-02-27T05:58:04.190Z,21.57
2019-02-27T06:00:32.198Z,20.45
2019-02-27T06:03:02.671Z,20.43
2019-02-27T06:05:33.688Z,20.77
2019-02-27T06:08:08.778Z,20.65
2019-02-27T06:10:40.821Z,20.80
2019-02-27T06:13:14.027Z,21.12
2019-02-27T06:15:43.774Z,20.02
2019-02-27T06:18:12.811Z,20.82
2019-02-27T06:20:44.182Z,20.37
2019-02-27T06:23:13.153Z,19.70
2019-02-27T06:25:42.193Z,20.20
2019-02-27T06:28:11.175Z,20.85
2019-02-27T06:30:41.657Z,19.82
2019-02-27T06:33:11.792Z,20.80
2019-02-27T06:35:45.084Z,20.30
2019-02-27T06:38:17.099Z,20.17
2019-02-27T06:40:46.073Z,20.75
2019-02-27T06:43:15.100Z,19.92
2019-02-27T06:45:46.469Z,20.68
2019-02-27T06:48:14.953Z,20.20
2019-02-27T06:50:43.993Z,20.08
2019-02-27T06:53:15.643Z,20.82
2019-02-27T06:55:43.640Z,19.77
2019-02-27T06:58:14.935Z,20.32
2019-02-27T07:00:52.304Z,19.95
2019-02-27T07:03:18.462Z,19.80
2019-02-27T07:05:48.223Z,19.92
2019-02-27T07:08:22.565Z,19.15
2019-02-27T07:10:57.381Z,19.92
2019-02-27T07:13:26.775Z,20.57
2019-02-27T07:15:56.923Z,21.20
2019-02-27T07:18:27.051Z,20.57
2019-02-27T07:23:25.787Z,20.27
2019-02-27T07:25:54.840Z,20.88
2019-02-27T07:28:26.982Z,21.33
2019-02-27T07:30:56.002Z,19.98
2019-02-27T07:33:51.077Z,19.92
2019-02-27T07:36:04.626Z,20.08
2019-02-27T07:38:35.283Z,19.48
2019-02-27T07:41:04.239Z,20.75
2019-02-27T07:43:39.269Z,21.77
2019-02-27T07:46:11.303Z,20.88
2019-02-27T07:48:40.328Z,21.45
2019-02-27T07:51:12.066Z,20.80
2019-02-27T07:53:43.040Z,19.95
2019-02-27T07:56:12.302Z,20.75
2019-02-27T07:58:41.334Z,20.40
2019-02-27T08:01:10.515Z,20.70
2019-02-27T08:03:45.540Z,20.55
2019-02-27T08:06:17.460Z,19.57
2019-02-27T08:08:46.466Z,19.35
2019-02-27T08:11:17.696Z,19.57
2019-02-27T08:13:49.893Z,18.45
2019-02-27T08:16:20.974Z,19.07
2019-02-27T08:18:53.365Z,17.77
2019-02-27T08:21:22.428Z,16.73
2019-02-27T08:23:52.555Z,17.40
2019-02-27T08:26:21.530Z,17.82
2019-02-27T08:28:50.485Z,18.62
2019-02-27T08:31:19.640Z,16.70
2019-02-27T08:33:50.171Z,16.80
2019-02-27T08:36:19.148Z,16.10
2019-02-27T08:38:48.123Z,16.00
2019-02-27T08:41:17.100Z,16.25
2019-02-27T08:43:49.011Z,15.48
2019-02-27T08:46:18.009Z,14.93
2019-02-27T08:51:17.817Z,14.28
2019-02-27T08:53:46.796Z,14.65
2019-02-27T08:56:18.083Z,14.80
2019-02-27T08:58:46.546Z,13.62
2019-02-27T09:01:19.035Z,13.80
2019-02-27T09:03:49.732Z,14.15
2019-02-27T09:06:20.575Z,13.88
2019-02-27T09:08:49.609Z,13.80
2019-02-27T09:11:21.106Z,13.48
2019-02-27T09:13:51.701Z,13.93
2019-02-27T09:16:26.110Z,14.18
2019-02-27T09:18:55.569Z,14.60
2019-02-27T09:21:27.614Z,13.50
2019-02-27T09:23:55.355Z,14.60
2019-02-27T09:26:24.403Z,14.07
2019-02-27T09:28:55.109Z,14.20
2019-02-27T09:31:24.082Z,14.55
2019-02-27T09:33:53.450Z,14.70
2019-02-27T09:36:22.951Z,13.85
2019-02-27T09:38:57.528Z,14.60
2019-02-27T09:41:25.815Z,14.20
2019-02-27T09:43:54.803Z,14.30
2019-02-27T09:46:23.881Z,13.40
2019-02-27T09:48:55.794Z,13.93
2019-02-27T09:51:26.981Z,12.88
2019-02-27T09:53:57.911Z,13.10
2019-02-27T09:56:29.130Z,13.75
2019-02-27T09:58:58.874Z,13.65
2019-02-27T10:01:29.176Z,14.43
2019-02-27T10:04:04.650Z,13.60
2019-02-27T10:06:54.438Z,13.53
2019-02-27T10:09:24.706Z,13.30
2019-02-27T10:11:53.703Z,13.93
2019-02-27T10:14:22.667Z,13.20
2019-02-27T10:16:57.345Z,13.22
2019-02-27T10:19:27.921Z,13.35
2019-02-27T10:22:06.582Z,12.85
2019-02-27T10:24:37.529Z,12.50
2019-02-27T10:27:06.801Z,13.28
2019-02-27T10:29:35.759Z,13.50
2019-02-27T10:32:04.746Z,13.38
2019-02-27T10:34:36.621Z,13.98
2019-02-27T10:37:06.040Z,12.88
2019-02-27T10:39:37.138Z,13.13
2019-02-27T10:42:07.714Z,13.22
2019-02-27T10:44:37.171Z,13.08
2019-02-27T10:47:06.331Z,14.00
2019-02-27T10:49:38.233Z,13.73
2019-02-27T10:52:10.255Z,13.78
2019-02-27T10:54:39.344Z,14.00
2019-02-27T10:57:12.319Z,13.90
2019-02-27T10:59:41.785Z,13.75
2019-02-27T11:02:12.400Z,13.60
2019-02-27T11:04:54.814Z,13.70
2019-02-27T11:07:26.525Z,13.53
2019-02-27T11:09:55.498Z,13.95
2019-02-27T11:12:29.409Z,15.00
2019-02-27T11:15:00.003Z,13.30
2019-02-27T11:17:28.976Z,14.05
2019-02-27T11:19:57.952Z,13.75
2019-02-27T11:22:31.494Z,14.25
2019-02-27T11:24:57.694Z,13.08
2019-02-27T11:27:26.724Z,13.43
2019-02-27T11:29:59.637Z,13.68
2019-02-27T11:32:29.630Z,13.68
2019-02-27T11:35:02.445Z,13.90
2019-02-27T11:37:32.490Z,13.32
2019-02-27T11:40:01.451Z,13.65
2019-02-27T11:42:32.090Z,13.75
2019-02-27T11:45:01.994Z,13.45
2019-02-27T11:47:31.348Z,13.83
2019-02-27T11:50:02.003Z,13.60
2019-02-27T11:52:32.134Z,14.50
2019-02-27T11:55:01.219Z,14.00
2019-02-27T11:57:30.547Z,14.53
2019-02-27T12:00:00.344Z,14.73
2019-02-27T12:02:36.998Z,15.10
2019-02-27T12:05:03.658Z,14.43
2019-02-27T12:07:32.857Z,15.98
2019-02-27T12:10:01.800Z,15.30
2019-02-27T12:16:03.967Z,14.55
2019-02-27T12:18:37.463Z,15.53
2019-02-27T12:21:06.594Z,15.60
2019-02-27T12:23:35.535Z,15.67
2019-02-27T12:26:05.859Z,16.05
2019-02-27T12:28:36.840Z,15.50
2019-02-27T12:31:11.107Z,15.50
2019-02-27T12:33:38.297Z,15.83
2019-02-27T12:36:08.960Z,16.27
2019-02-27T12:38:42.321Z,15.68
2019-02-27T12:41:08.841Z,16.27
2019-02-27T12:43:37.841Z,15.90
2019-02-27T12:46:09.774Z,15.77
2019-02-27T12:48:46.141Z,15.78
2019-02-27T12:51:18.195Z,15.88
2019-02-27T12:53:54.356Z,16.10
2019-02-27T12:56:21.057Z,15.58
2019-02-27T12:58:58.757Z,15.88
2019-02-27T13:01:27.906Z,16.48
2019-02-27T13:03:59.016Z,16.23
2019-02-27T13:06:29.629Z,16.10
2019-02-27T13:08:59.921Z,15.93
2019-02-27T13:11:30.698Z,16.35
2019-02-27T13:14:00.778Z,16.30
2019-02-27T13:16:33.039Z,16.80
2019-02-27T13:19:06.347Z,16.40
2019-02-27T13:21:32.916Z,16.60
2019-02-27T13:24:02.099Z,18.40
2019-02-27T13:26:34.733Z,18.05
2019-02-27T13:29:06.957Z,17.25
2019-02-27T13:31:35.989Z,17.55
2019-02-27T13:34:04.998Z,17.17
2019-02-27T13:36:34.797Z,17.70
2019-02-27T13:39:10.551Z,17.95
2019-02-27T13:41:42.440Z,17.90
2019-02-27T13:44:11.894Z,18.57
2019-02-27T13:46:41.524Z,19.40
2019-02-27T13:49:11.384Z,17.77
2019-02-27T13:51:43.513Z,18.10
2019-02-27T13:54:14.918Z,18.67
2019-02-27T13:56:44.694Z,17.37
2019-02-27T14:01:41.785Z,17.57
2019-02-27T14:04:13.136Z,19.40
2019-02-27T14:06:43.501Z,18.42
2019-02-27T14:09:14.056Z,18.77
2019-02-27T14:11:43.179Z,20.32
2019-02-27T14:14:12.139Z,19.85
2019-02-27T14:16:44.052Z,19.30
2019-02-27T14:19:13.024Z,19.75
2019-02-27T14:21:45.870Z,18.43
2019-02-27T14:24:20.330Z,19.35
2019-02-27T14:26:55.475Z,18.62
2019-02-27T14:29:26.067Z,19.17
2019-02-27T14:31:56.534Z,18.92
2019-02-27T14:34:27.440Z,18.85
2019-02-27T14:36:58.039Z,19.35
2019-02-27T14:39:29.646Z,19.20
2019-02-27T14:41:58.045Z,19.10
2019-02-27T14:44:31.307Z,20.48
2019-02-27T14:47:01.471Z,20.62
2019-02-27T14:52:18.810Z,19.98
2019-02-27T14:54:51.559Z,20.52
2019-02-27T14:57:22.955Z,20.48
2019-02-27T14:59:51.921Z,20.57
2019-02-27T15:02:23.913Z,20.62
2019-02-27T15:04:52.948Z,21.17
2019-02-27T15:07:24.575Z,20.35
2019-02-27T15:09:53.513Z,21.77
2019-02-27T15:12:22.511Z,21.73
2019-02-27T15:14:56.077Z,20.73
2019-02-27T15:17:25.052Z,20.92
2019-02-27T15:19:54.129Z,22.33
2019-02-27T15:22:30.432Z,22.30
2019-02-27T15:25:02.704Z,22.35
2019-02-27T15:27:46.550Z,22.87
2019-02-27T15:30:19.123Z,22.65
2019-02-27T15:32:48.098Z,21.33
2019-02-27T15:35:20.854Z,23.67
2019-02-27T15:37:48.295Z,22.42
2019-02-27T15:40:20.469Z,22.62
2019-02-27T15:42:50.630Z,23.22
2019-02-27T15:45:25.993Z,23.97
2019-02-27T15:47:57.669Z,23.20
2019-02-27T15:50:31.137Z,23.70
2019-02-27T15:53:01.410Z,23.50
2019-02-27T15:55:34.320Z,24.27
2019-02-27T15:58:09.535Z,23.92
2019-02-27T16:00:33.785Z,23.10
2019-02-27T16:03:03.776Z,25.32
2019-02-27T16:05:36.814Z,25.27
2019-02-27T16:08:06.902Z,25.25
2019-02-27T16:10:42.619Z,26.62
2019-02-27T16:13:09.540Z,24.72
2019-02-27T16:15:40.383Z,25.60
2019-02-27T16:18:13.772Z,25.43
2019-02-27T16:20:41.828Z,25.75
2019-02-27T16:23:10.807Z,26.03
2019-02-27T16:25:41.294Z,25.53
2019-02-27T16:38:02.430Z,24.65
2019-02-27T16:40:31.411Z,25.48
2019-02-27T16:43:00.431Z,25.93
2019-02-27T16:45:33.913Z,25.65
2019-02-27T16:48:02.274Z,26.07
2019-02-27T16:50:31.560Z,26.23
2019-02-27T16:53:00.511Z,27.17
2019-02-27T16:55:29.789Z,26.77
2019-02-27T16:58:01.821Z,26.02
2019-02-27T17:00:33.180Z,26.97
2019-02-27T17:03:04.159Z,27.10
2019-02-27T17:05:34.559Z,26.35
2019-02-27T17:08:03.591Z,26.23
2019-02-27T17:10:34.171Z,26.43
2019-02-27T17:13:03.531Z,26.73
2019-02-27T17:15:35.931Z,27.77
2019-02-27T17:18:07.827Z,26.05
2019-02-27T17:20:37.006Z,27.77
2019-02-27T17:23:10.386Z,29.43
2019-02-27T17:25:38.231Z,27.70
2019-02-27T17:28:11.675Z,27.90
2019-02-27T17:30:42.095Z,27.55
2019-02-27T17:33:11.128Z,27.32
2019-02-27T17:35:45.085Z,28.12
2019-02-27T17:38:16.182Z,28.10
2019-02-27T17:40:47.071Z,27.67
2019-02-27T17:43:16.058Z,27.70
2019-02-27T17:45:47.619Z,28.60
2019-02-27T17:48:16.551Z,28.17
2019-02-27T17:50:52.230Z,28.23
2019-02-27T17:53:24.270Z,28.38
2019-02-27T17:55:53.278Z,28.57
2019-02-27T17:58:22.297Z,28.52
2019-02-27T18:01:04.898Z,29.75
2019-02-27T18:03:36.645Z,28.87
2019-02-27T18:06:12.275Z,30.05
2019-02-27T18:08:41.309Z,30.02
2019-02-27T18:11:12.284Z,30.80
2019-02-27T18:13:41.510Z,29.35
2019-02-27T18:16:10.569Z,29.07
2019-02-27T18:18:43.097Z,30.20
2019-02-27T18:21:13.598Z,30.32
2019-02-27T18:23:44.853Z,29.60
2019-02-27T18:26:17.844Z,29.18
2019-02-27T18:28:48.791Z,29.07
2019-02-27T18:31:17.482Z,29.45
2019-02-27T18:33:49.498Z,30.37
2019-02-27T18:36:18.804Z,29.67
2019-02-27T18:38:49.328Z,28.73
2019-02-27T18:41:21.600Z,29.65
2019-02-27T18:43:50.602Z,29.02
2019-02-27T18:46:24.507Z,30.62
2019-02-27T18:48:57.764Z,30.72
2019-02-27T18:51:26.788Z,30.27
2019-02-27T18:53:55.903Z,29.70
2019-02-27T18:56:24.852Z,30.47
2019-02-27T18:58:55.594Z,29.35
2019-02-27T19:01:24.998Z,29.82
2019-02-27T19:04:01.223Z,31.12
2019-02-27T19:06:29.622Z,29.95
2019-02-27T19:08:59.516Z,29.32
2019-02-27T19:11:29.532Z,30.72
2019-02-27T19:13:58.514Z,29.30
2019-02-27T19:16:30.548Z,29.72
2019-02-27T19:18:59.580Z,30.68
2019-02-27T19:21:32.715Z,31.65
2019-02-27T19:24:00.859Z,30.27
2019-02-27T19:26:29.927Z,31.35
2019-02-27T19:29:03.982Z,31.97
2019-02-27T19:31:35.583Z,30.70
2019-02-27T19:34:07.359Z,33.23
2019-02-27T19:36:36.884Z,31.73
2019-02-27T19:39:06.826Z,32.28
2019-02-27T19:41:41.014Z,32.20
2019-02-27T19:44:10.022Z,31.42
2019-02-27T19:46:47.433Z,33.30
2019-02-27T19:49:17.947Z,33.10
2019-02-27T19:51:48.585Z,32.17
2019-02-27T19:54:19.857Z,31.97
2019-02-27T19:56:49.446Z,32.78
2019-02-27T19:59:24.677Z,32.83
2019-02-27T20:01:55.225Z,32.40
2019-02-27T20:04:27.135Z,32.78
2019-02-27T20:06:58.371Z,33.28
2019-02-27T20:09:31.399Z,32.15
2019-02-27T20:12:01.471Z,31.75
2019-02-27T20:16:58.879Z,32.78
2019-02-27T20:19:29.100Z,33.43
2019-02-27T20:22:04.812Z,33.18
2019-02-27T20:24:35.591Z,34.08
2019-02-27T20:27:07.839Z,34.95
2019-02-27T20:29:40.586Z,33.08
2019-02-27T20:32:08.000Z,33.35
2019-02-27T20:34:37.219Z,33.73
2019-02-27T20:37:10.507Z,33.78
2019-02-27T20:39:42.172Z,33.67
2019-02-27T20:42:14.454Z,33.45
2019-02-27T20:44:43.682Z,35.03
2019-02-27T20:47:12.654Z,33.28
2019-02-27T20:52:14.950Z,33.48
2019-02-27T20:54:46.119Z,32.15
2019-02-27T20:57:15.439Z,32.23
2019-02-27T20:59:44.375Z,31.90
2019-02-27T21:02:13.356Z,30.95
2019-02-27T21:07:22.517Z,31.37
2019-02-27T21:09:53.772Z,32.33
2019-02-27T21:12:22.739Z,31.70
2019-02-27T21:14:51.702Z,31.77
2019-02-27T21:17:21.793Z,33.67
2019-02-27T21:19:52.701Z,32.17
2019-02-27T21:22:27.784Z,33.80
2019-02-27T21:24:56.334Z,32.67
2019-02-27T21:27:25.302Z,32.70
2019-02-27T21:29:55.920Z,34.48
2019-02-27T21:32:24.890Z,34.78
2019-02-27T21:34:56.846Z,33.78
2019-02-27T21:37:25.869Z,35.05
2019-02-27T21:39:57.110Z,34.50
2019-02-27T21:42:28.642Z,33.73
2019-02-27T21:45:00.057Z,34.43
2019-02-27T21:47:34.620Z,32.78
2019-02-27T21:50:03.686Z,33.50
2019-02-27T21:52:32.480Z,32.83
2019-02-27T21:55:09.407Z,33.48
2019-02-27T21:57:36.842Z,30.80
2019-02-27T22:00:14.002Z,30.62
2019-02-27T22:02:51.568Z,30.72
2019-02-27T22:05:20.627Z,32.50
2019-02-27T22:07:51.164Z,31.20
2019-02-27T22:10:24.041Z,31.05
2019-02-27T22:12:53.042Z,32.83
2019-02-27T22:15:33.566Z,33.58
2019-02-27T22:18:02.688Z,33.25
2019-02-27T22:20:32.685Z,34.80
2019-02-27T22:25:33.360Z,33.67
2019-02-27T22:28:04.020Z,34.23
2019-02-27T22:30:36.830Z,35.83
2019-02-27T22:33:14.820Z,35.73
2019-02-27T22:35:43.806Z,35.40
2019-02-27T22:38:13.040Z,34.80
2019-02-27T22:40:41.985Z,35.47
2019-02-27T22:43:10.948Z,34.92
2019-02-27T22:45:44.091Z,35.17
2019-02-27T22:48:16.119Z,35.65
2019-02-27T22:50:49.018Z,36.68
2019-02-27T22:53:18.261Z,36.53
2019-02-27T22:55:47.203Z,37.10
2019-02-27T22:58:16.225Z,36.95
2019-02-27T23:01:00.307Z,37.65
2019-02-27T23:03:32.770Z,36.88
2019-02-27T23:06:02.377Z,36.42
2019-02-27T23:11:04.729Z,37.15
2019-02-27T23:13:37.733Z,37.20
2019-02-27T23:16:07.110Z,38.05
2019-02-27T23:18:40.279Z,38.75
2019-02-27T23:21:21.687Z,39.78
2019-02-27T23:23:50.877Z,38.30
2019-02-27T23:26:21.833Z,40.37
2019-02-27T23:28:52.669Z,39.10
2019-02-27T23:31:23.395Z,39.35
2019-02-27T23:33:52.383Z,38.02
2019-02-27T23:36:22.765Z,38.60
2019-02-27T23:38:51.915Z,40.12
2019-02-27T23:41:23.974Z,39.95
2019-02-27T23:43:53.977Z,41.48
2019-02-27T23:46:23.507Z,40.95
2019-02-27T23:48:52.817Z,39.42
2019-02-27T23:51:27.025Z,41.70
2019-02-27T23:54:01.328Z,41.25
2019-02-27T23:56:29.927Z,41.02
2019-02-27T23:59:02.308Z,41.98
